Time;durP1;ratioP1;P1;durP2;ratioP2;P2;SDS_P1;SDS_P2;PMS_P1;PMS_P2;Temp;Humidity;BMP_temperature;BMP_pressure;BME280_temperature;BME280_humidity;BME280_pressure;Samples;Min_cycle;Max_cycle;Signal;HPM_P1;HPM_P2
2023/10/19 00:02:15;;;;;;;0.70;0.70;;;;;;;9.04;90.40;97149.13;4984964;28;20054;-68
2023/10/19 00:04:42;;;;;;;0.70;0.70;;;;;;;9.22;91.32;97172.44;4984221;28;20054;-68
2023/10/19 00:07:15;;;;;;;0.80;0.80;;;;;;;9.29;90.12;97172.63;4983587;28;20046;-68
2023/10/19 00:09:46;;;;;;;0.80;0.80;;;;;;;8.92;90.22;97118.81;4984479;28;20145;-69
2023/10/19 00:12:15;;;;;;;0.80;0.80;;;;;;;9.18;89.12;97132.88;4984917;28;20050;-67
2023/10/19 00:14:42;;;;;;;0.70;0.70;;;;;;;9.32;89.30;97141.50;4984784;28;20056;-68
2023/10/19 00:17:11;;;;;;;0.73;0.73;;;;;;;9.48;89.19;97161.63;4984661;28;20054;-68
2023/10/19 00:19:39;;;;;;;0.73;0.73;;;;;;;9.50;89.26;97153.75;4984770;28;20050;-56
2023/10/19 00:22:15;;;;;;;0.70;0.70;;;;;;;8.82;90.11;97067.69;4983027;28;20069;-54
2023/10/19 00:24:44;;;;;;;0.80;0.80;;;;;;;8.90;89.47;97065.88;4984683;28;20516;-59
2023/10/19 00:27:16;;;;;;;0.75;0.75;;;;;;;9.38;88.62;97145.59;4984376;28;20073;-55
2023/10/19 00:29:49;;;;;;;0.75;0.75;;;;;;;8.93;88.26;97101.88;4984367;28;20054;-69
2023/10/19 00:32:17;;;;;;;0.80;0.80;;;;;;;9.23;88.42;97151.97;4984412;28;20057;-69
2023/10/19 00:34:50;;;;;;;0.70;0.70;;;;;;;9.12;87.78;97151.69;4993540;28;20061;-55
2023/10/19 00:37:20;;;;;;;0.80;0.80;;;;;;;8.91;87.10;97125.53;5003503;28;20050;-54
2023/10/19 00:39:54;;;;;;;0.70;0.70;;;;;;;8.64;87.30;97109.84;5002563;28;20413;-53
2023/10/19 00:42:30;;;;;;;0.75;0.75;;;;;;;8.81;87.21;97140.66;5004013;28;20054;-54
2023/10/19 00:45:04;;;;;;;0.70;0.70;;;;;;;8.78;87.43;97144.16;5001731;28;20339;-54
2023/10/19 00:47:39;;;;;;;;;;;;;;;8.67;87.90;97151.34;5002992;28;20068;-56
2023/10/19 00:50:15;;;;;;;0.68;0.68;;;;;;;8.44;89.17;97135.75;5002196;28;19925;-68
2023/10/19 00:52:49;;;;;;;0.70;0.70;;;;;;;8.30;90.24;97135.38;5002100;28;20081;-67
2023/10/19 00:55:25;;;;;;;0.65;0.65;;;;;;;8.38;90.71;97132.44;5003858;28;20050;-68
2023/10/19 00:57:54;;;;;;;0.70;0.70;;;;;;;8.35;91.06;97132.34;5004113;28;20064;-68
2023/10/19 01:00:29;;;;;;;0.60;0.60;;;;;;;8.05;93.09;97128.31;5003504;28;20495;-67
2023/10/19 01:02:59;;;;;;;0.60;0.60;;;;;;;8.11;93.95;97099.34;5003972;28;20054;-68
2023/10/19 01:05:35;;;;;;;0.70;0.70;;;;;;;8.15;93.54;97106.56;5003674;28;20050;-67
2023/10/19 01:08:22;;;;;;;0.70;0.70;;;;;;;8.29;93.17;97119.94;5003999;28;20050;-68
2023/10/19 01:10:52;;;;;;;0.65;0.65;;;;;;;8.08;93.29;97094.53;5006485;28;20523;-68
2023/10/19 01:13:26;;;;;;;0.60;0.60;;;;;;;8.24;94.48;97122.97;5007526;28;20078;-67
2023/10/19 01:15:54;;;;;;;0.60;0.60;;;;;;;8.24;94.97;97121.03;5005374;28;20053;-69
2023/10/19 01:18:22;;;;;;;0.77;0.77;;;;;;;8.19;94.66;97112.97;5007284;28;20050;-65
2023/10/19 01:20:52;;;;;;;0.70;0.70;;;;;;;8.17;92.76;97114.47;5007188;28;20080;-68
2023/10/19 01:28:42;;;;;;;0.70;0.70;;;;;;;8.04;93.46;97107.41;5006759;28;20536;-67
2023/10/19 01:31:56;;;;;;;0.70;0.70;;;;;;;7.80;93.16;97091.78;5005696;28;20429;-67
2023/10/19 01:34:05;;;;;;;0.60;0.60;;;;;;;7.56;93.98;97061.53;4987456;28;20054;-54
2023/10/19 01:36:42;;;;;;;0.60;0.60;;;;;;;7.85;93.55;97108.09;5006551;28;20056;-57
2023/10/19 01:39:12;;;;;;;0.60;0.60;;;;;;;7.85;94.34;97110.03;5005106;28;20060;-54
2023/10/19 01:41:41;;;;;;;0.60;0.60;;;;;;;7.83;94.13;97117.84;5007044;28;20504;-55
2023/10/19 01:44:12;;;;;;;0.70;0.70;;;;;;;7.67;94.18;97096.53;5005396;28;20104;-54
2023/10/19 01:46:40;;;;;;;0.60;0.60;;;;;;;7.24;94.69;97022.03;5006606;28;20132;-54
2023/10/19 01:49:08;;;;;;;0.60;0.60;;;;;;;7.87;94.57;97110.47;4996467;28;20054;-55
2023/10/19 01:51:39;;;;;;;0.60;0.60;;;;;;;7.96;93.72;97113.88;5005602;28;20057;-54
2023/10/19 01:54:07;;;;;;;0.60;0.60;;;;;;;7.96;93.30;97125.72;5006468;28;20135;-53
2023/10/19 01:56:38;;;;;;;0.60;0.60;;;;;;;7.90;93.57;97109.78;5006224;28;20146;-55
2023/10/19 01:59:06;;;;;;;0.60;0.60;;;;;;;7.84;93.52;97111.19;5006178;28;20531;-55
2023/10/19 02:01:33;;;;;;;0.60;0.60;;;;;;;7.78;93.85;97107.88;5006112;28;20132;-54
2023/10/19 02:04:03;;;;;;;0.57;0.57;;;;;;;7.83;93.45;97115.09;5006092;28;20176;-55
2023/10/19 02:09:17;;;;;;;0.60;0.60;;;;;;;7.80;93.70;97121.31;5005744;28;20050;-56
2023/10/19 02:11:48;;;;;;;0.60;0.60;;;;;;;7.87;94.10;97110.47;5005947;28;20467;-56
2023/10/19 02:14:18;;;;;;;0.60;0.60;;;;;;;7.89;93.25;97113.69;5005994;28;20064;-54
2023/10/19 02:16:50;;;;;;;0.70;0.70;;;;;;;7.79;93.15;97092.13;5006256;28;20129;-55
2023/10/19 02:19:22;;;;;;;0.53;0.53;;;;;;;7.96;93.11;97114.69;5004740;28;20052;-55
2023/10/19 02:21:55;;;;;;;0.60;0.60;;;;;;;7.92;92.50;97118.50;5005501;28;20061;-54
2023/10/19 02:24:22;;;;;;;0.65;0.65;;;;;;;8.01;92.63;97105.38;5004769;28;20046;-56
2023/10/19 02:26:51;;;;;;;0.60;0.60;;;;;;;8.00;92.14;97098.25;5005716;28;20716;-54
2023/10/19 02:29:18;;;;;;;0.70;0.70;;;;;;;7.27;92.27;96982.78;5006085;28;20093;-68
2023/10/19 02:31:47;;;;;;;0.70;0.70;;;;;;;8.10;91.67;97108.75;5005513;28;20445;-67
2023/10/19 02:34:17;;;;;;;0.60;0.60;;;;;;;7.59;90.71;97033.28;5005367;28;20076;-67
2023/10/19 02:36:45;;;;;;;0.70;0.70;;;;;;;8.10;90.21;97106.00;5005462;28;20045;-68
2023/10/19 02:39:28;;;;;;;0.70;0.70;;;;;;;8.06;91.32;97103.13;5005584;28;20143;-67
2023/10/19 02:41:55;;;;;;;0.67;0.67;;;;;;;7.95;90.19;97106.78;5005608;28;20064;-66
2023/10/19 02:44:23;;;;;;;0.60;0.60;;;;;;;7.83;90.21;97084.75;5005320;28;20053;-68
2023/10/19 02:46:53;;;;;;;0.60;0.60;;;;;;;7.84;90.66;97111.97;5005438;28;20085;-68
2023/10/19 02:49:22;;;;;;;0.60;0.60;;;;;;;7.80;91.19;97110.28;5005945;28;20076;-54
2023/10/19 02:51:52;;;;;;;0.70;0.70;;;;;;;7.82;91.30;97110.72;5004164;28;20056;-55
2023/10/19 02:54:24;;;;;;;0.70;0.70;;;;;;;7.64;91.19;97086.22;5004277;28;20053;-55
2023/10/19 02:56:53;;;;;;;0.60;0.60;;;;;;;7.54;92.45;97114.25;5005507;28;20115;-56
2023/10/19 02:59:24;;;;;;;0.60;0.60;;;;;;;7.51;92.27;97114.97;5003910;28;20057;-54
2023/10/19 03:02:17;;;;;;;0.60;0.60;;;;;;;7.54;92.82;97111.50;5005776;28;20064;-54
2023/10/19 03:04:45;;;;;;;0.70;0.70;;;;;;;7.43;92.57;97113.16;5003447;28;20050;-53
2023/10/19 03:07:13;;;;;;;0.57;0.57;;;;;;;7.42;93.40;97111.56;5005004;28;20304;-54
2023/10/19 03:09:48;;;;;;;0.60;0.60;;;;;;;6.98;92.39;97051.97;5004916;28;20084;-54
2023/10/19 03:12:16;;;;;;;0.60;0.60;;;;;;;6.98;92.39;97046.44;5005066;28;20076;-54
2023/10/19 03:14:46;;;;;;;0.60;0.60;;;;;;;7.35;92.45;97111.31;5005226;28;20104;-54
2023/10/19 03:17:13;;;;;;;0.55;0.55;;;;;;;7.31;91.67;97104.91;5004815;28;20105;-53
2023/10/19 03:19:40;;;;;;;0.60;0.60;;;;;;;6.80;91.98;97069.88;4987285;28;20060;-53
2023/10/19 03:22:08;;;;;;;0.50;0.50;;;;;;;7.08;92.99;97109.31;4985337;28;20046;-54
2023/10/19 03:24:36;;;;;;;0.52;0.52;;;;;;;6.63;93.39;97039.84;4984203;28;20066;-54
2023/10/19 03:27:25;;;;;;;0.60;0.60;;;;;;;7.11;93.27;97103.09;4985107;28;20058;-55
2023/10/19 03:29:55;;;;;;;0.50;0.50;;;;;;;7.06;92.90;97108.06;4983963;28;20046;-53
2023/10/19 03:32:28;;;;;;;0.60;0.60;;;;;;;6.99;92.49;97108.63;4982657;28;20058;-54
2023/10/19 03:34:56;;;;;;;0.50;0.50;;;;;;;6.97;92.70;97116.44;4984808;28;20421;-54
2023/10/19 03:37:25;;;;;;;0.50;0.50;;;;;;;6.99;93.10;97108.63;4985174;28;20088;-54
2023/10/19 03:39:55;;;;;;;0.55;0.55;;;;;;;6.94;93.58;97097.06;4985085;28;20058;-53
2023/10/19 03:42:32;;;;;;;0.50;0.50;;;;;;;6.61;92.39;97053.13;4985023;28;20050;-55
2023/10/19 03:45:02;;;;;;;0.60;0.60;;;;;;;7.04;92.31;97100.13;4983494;28;20138;-54
2023/10/19 03:47:35;;;;;;;0.60;0.60;;;;;;;6.99;92.97;97097.63;4984835;28;20445;-54
2023/10/19 03:50:06;;;;;;;;;;;;;;;7.00;93.91;97104.72;4985188;28;20443;-54
2023/10/19 03:52:39;;;;;;;0.50;0.50;;;;;;;6.85;94.67;97101.88;4985120;28;19932;-53
2023/10/19 03:55:19;;;;;;;0.60;0.60;;;;;;;6.83;95.65;97093.94;4983413;28;20419;-55
2023/10/19 03:57:54;;;;;;;0.50;0.50;;;;;;;6.89;94.98;97089.03;4985483;28;20050;-53
2023/10/19 04:00:25;;;;;;;0.50;0.50;;;;;;;6.86;95.15;97093.25;4984647;28;20140;-56
2023/10/19 04:02:56;;;;;;;0.57;0.57;;;;;;;6.88;94.96;97090.16;4983258;28;20056;-54
2023/10/19 04:05:23;;;;;;;0.57;0.57;;;;;;;6.78;93.64;97088.66;4984789;28;20190;-54
2023/10/19 04:07:52;;;;;;;0.60;0.60;;;;;;;6.62;93.76;97087.78;4967121;28;20528;-56
2023/10/19 04:10:38;;;;;;;0.60;0.60;;;;;;;6.68;92.76;97091.91;4982456;28;20062;-54
2023/10/19 04:13:09;;;;;;;0.50;0.50;;;;;;;5.67;92.17;96951.75;4984722;28;20066;-54
2023/10/19 04:15:41;;;;;;;0.50;0.50;;;;;;;6.43;92.90;97095.78;4982421;28;20525;-54
2023/10/19 04:18:08;;;;;;;0.50;0.50;;;;;;;6.44;92.61;97102.88;4984517;28;20050;-57
2023/10/19 04:20:54;;;;;;;0.50;0.50;;;;;;;6.35;92.81;97102.19;4984219;28;20054;-56
2023/10/19 04:23:26;;;;;;;0.60;0.60;;;;;;;6.34;93.79;97103.31;4981808;28;20089;-68
2023/10/19 04:25:58;;;;;;;0.55;0.55;;;;;;;6.31;94.38;97103.22;5004292;28;20057;-68
2023/10/19 04:28:30;;;;;;;0.60;0.60;;;;;;;6.38;95.63;97107.00;5004165;28;20046;-68
2023/10/19 04:31:02;;;;;;;0.50;0.50;;;;;;;6.38;95.69;97087.75;5004439;28;20056;-68
2023/10/19 04:33:31;;;;;;;0.50;0.50;;;;;;;6.54;95.65;97102.44;5004099;28;20058;-68
2023/10/19 04:36:00;;;;;;;0.60;0.60;;;;;;;6.21;96.37;97032.97;5004230;28;20056;-68
2023/10/19 04:38:27;;;;;;;0.50;0.50;;;;;;;6.68;96.12;97091.91;5003851;28;20051;-68
2023/10/19 04:40:54;;;;;;;0.52;0.52;;;;;;;6.76;94.94;97099.25;5003907;28;20049;-68
2023/10/19 04:43:21;;;;;;;0.52;0.52;;;;;;;6.44;94.00;97034.09;5003212;28;20144;-67
2023/10/19 04:45:48;;;;;;;0.60;0.60;;;;;;;6.61;93.01;97058.63;5006165;28;20389;-68
2023/10/19 04:48:15;;;;;;;0.60;0.60;;;;;;;6.59;93.14;97055.41;5007483;28;20513;-67
2023/10/19 04:50:42;;;;;;;0.50;0.50;;;;;;;6.91;92.18;97090.28;5007345;28;20287;-68
2023/10/19 04:53:08;;;;;;;0.57;0.57;;;;;;;6.87;91.58;97108.66;5007394;28;20433;-65
2023/10/19 04:55:35;;;;;;;0.60;0.60;;;;;;;6.93;90.97;97109.22;5007706;28;20060;-68
2023/10/19 04:58:02;;;;;;;0.52;0.52;;;;;;;6.80;92.05;97113.91;5007637;28;20053;-67
2023/10/19 05:00:30;;;;;;;0.50;0.50;;;;;;;6.88;91.92;97101.97;4990014;28;20062;-55
2023/10/19 05:02:57;;;;;;;0.60;0.60;;;;;;;6.37;91.84;97028.38;5007244;28;20478;-55
2023/10/19 05:05:24;;;;;;;0.60;0.60;;;;;;;6.92;92.29;97102.91;5007299;28;20050;-56
2023/10/19 05:07:51;;;;;;;0.50;0.50;;;;;;;7.07;92.16;97098.63;5007432;28;20100;-54
2023/10/19 05:10:19;;;;;;;0.57;0.57;;;;;;;6.94;92.04;97077.78;5006773;28;20127;-54
2023/10/19 05:12:46;;;;;;;0.50;0.50;;;;;;;7.09;91.38;97102.66;5007444;28;20069;-57
2023/10/19 05:15:13;;;;;;;0.60;0.60;;;;;;;7.22;90.74;97101.47;5005659;28;20052;-55
2023/10/19 05:17:40;;;;;;;0.60;0.60;;;;;;;7.12;91.95;97101.97;5006903;28;20440;-54
2023/10/19 05:20:07;;;;;;;0.55;0.55;;;;;;;7.23;90.91;97097.59;5006616;28;20489;-55
2023/10/19 05:22:34;;;;;;;0.60;0.60;;;;;;;7.14;91.67;97116.19;5007256;28;20049;-56
2023/10/19 05:25:01;;;;;;;0.60;0.60;;;;;;;7.24;91.54;97121.22;5006969;28;20050;-56
2023/10/19 05:27:28;;;;;;;0.60;0.60;;;;;;;7.33;92.20;97108.09;5006061;28;20054;-55
2023/10/19 05:29:55;;;;;;;0.60;0.60;;;;;;;7.12;92.31;97068.91;5004186;28;20092;-69
2023/10/19 05:32:21;;;;;;;0.60;0.60;;;;;;;7.46;92.24;97106.94;5005697;28;20495;-66
2023/10/19 05:34:48;;;;;;;0.68;0.68;;;;;;;7.31;91.74;97093.09;5005547;28;20038;-68
2023/10/19 05:37:16;;;;;;;0.60;0.60;;;;;;;7.35;91.86;97083.78;5005423;28;20077;-68
2023/10/19 05:39:44;;;;;;;0.63;0.63;;;;;;;7.61;91.90;97108.97;5004101;28;20046;-68
2023/10/19 05:42:10;;;;;;;0.60;0.60;;;;;;;7.79;91.51;97111.44;5005387;28;20081;-68
2023/10/19 05:44:37;;;;;;;0.60;0.60;;;;;;;7.89;91.70;97108.97;5006570;28;20054;-67
2023/10/19 05:47:04;;;;;;;0.60;0.60;;;;;;;8.00;90.63;97114.81;5006542;28;20053;-54
2023/10/19 05:49:32;;;;;;;0.60;0.60;;;;;;;7.99;89.83;97115.94;5006441;28;20058;-54
2023/10/19 05:51:59;;;;;;;0.60;0.60;;;;;;;8.07;90.50;97114.97;5006385;28;20640;-54
2023/10/19 05:54:26;;;;;;;0.70;0.70;;;;;;;7.91;89.30;97090.13;5004807;28;20463;-55
2023/10/19 05:56:53;;;;;;;0.70;0.70;;;;;;;7.79;88.86;97064.56;5003892;28;20145;-57
2023/10/19 05:59:20;;;;;;;0.60;0.60;;;;;;;8.08;89.38;97083.50;4999303;28;20050;-65
2023/10/19 06:01:47;;;;;;;0.60;0.60;;;;;;;7.99;89.80;97072.63;5001702;28;20085;-65
2023/10/19 06:04:15;;;;;;;0.60;0.60;;;;;;;8.40;90.25;97113.56;4993750;28;20042;-56
2023/10/19 06:06:47;;;;;;;0.70;0.70;;;;;;;8.58;90.03;97114.03;5002024;28;20153;-68
2023/10/19 06:09:15;;;;;;;0.60;0.60;;;;;;;8.29;90.98;97078.56;4992222;28;20054;-56
2023/10/19 06:11:42;;;;;;;0.70;0.70;;;;;;;8.77;89.84;97120.44;5005618;28;20061;-67
2023/10/19 06:14:10;;;;;;;0.70;0.70;;;;;;;8.86;89.76;97123.84;5001152;28;20046;-67
2023/10/19 06:16:37;;;;;;;0.70;0.70;;;;;;;8.62;89.63;97057.75;4986597;28;20058;-69
2023/10/19 06:19:05;;;;;;;0.70;0.70;;;;;;;9.25;89.34;97108.16;4994301;28;20116;-56
2023/10/19 06:21:33;;;;;;;0.70;0.70;;;;;;;8.89;89.44;97028.38;5005509;28;20053;-58
2023/10/19 06:24:00;;;;;;;0.80;0.80;;;;;;;9.74;90.15;97112.03;4997266;28;20183;-61
2023/10/19 06:26:28;;;;;;;0.80;0.80;;;;;;;9.79;89.87;97059.19;5000325;28;20085;-63
2023/10/19 06:29:02;;;;;;;0.80;0.80;;;;;;;9.56;87.84;96991.97;4996491;28;20054;-57
2023/10/19 06:31:29;;;;;;;0.80;0.80;;;;;;;10.44;87.54;97113.47;4995039;28;20050;-61
2023/10/19 06:33:57;;;;;;;0.80;0.80;;;;;;;10.31;87.59;97053.91;4998627;28;20058;-67
2023/10/19 06:36:26;;;;;;;0.90;0.90;;;;;;;10.77;86.98;97098.19;4997522;28;20509;-70
2023/10/19 06:38:54;;;;;;;0.80;0.80;;;;;;;11.12;86.93;97109.88;5002109;28;20050;-60
2023/10/19 06:41:22;;;;;;;0.90;0.90;;;;;;;10.97;84.47;97069.25;5004180;28;20516;-67
2023/10/19 06:43:49;;;;;;;0.90;0.90;;;;;;;11.46;84.16;97108.81;5003251;28;20050;-64
2023/10/19 06:46:17;;;;;;;0.90;0.90;;;;;;;11.10;83.83;97073.41;4990560;28;20062;-64
2023/10/19 06:48:44;;;;;;;0.90;0.90;;;;;;;11.49;82.93;97114.41;4992216;28;20046;-63
2023/10/19 06:51:11;;;;;;;0.90;0.90;;;;;;;10.84;84.91;97126.03;5000747;28;20093;-63
2023/10/19 06:53:38;;;;;;;0.90;0.90;;;;;;;10.73;86.15;97091.81;4974615;28;20038;-62
2023/10/19 06:56:06;;;;;;;0.90;0.90;;;;;;;10.99;84.95;97111.25;4970108;28;20736;-56
2023/10/19 06:58:34;;;;;;;0.90;0.90;;;;;;;11.16;84.56;97103.22;4968808;28;20054;-54
2023/10/19 07:01:05;;;;;;;0.93;0.93;;;;;;;11.24;84.73;97101.38;4977534;28;20117;-54
2023/10/19 07:03:32;;;;;;;0.90;0.90;;;;;;;11.09;84.56;97033.00;4976908;28;20050;-63
2023/10/19 07:05:59;;;;;;;1.00;1.00;;;;;;;11.96;83.10;97100.81;4978171;28;20092;-56
2023/10/19 07:08:30;;;;;;;0.90;0.90;;;;;;;12.23;82.41;97104.31;4979871;28;20564;-54
2023/10/19 07:10:57;;;;;;;1.00;1.00;;;;;;;12.35;80.76;97084.59;4984082;28;20053;-72
2023/10/19 07:13:25;;;;;;;1.00;1.00;;;;;;;12.71;77.92;97097.66;4976441;28;20042;-55
2023/10/19 07:15:52;;;;;;;1.00;1.00;;;;;;;12.95;76.73;97097.09;4973456;28;20058;-56
2023/10/19 07:18:19;;;;;;;1.10;1.10;;;;;;;12.92;76.74;97092.31;4974858;28;20050;-56
2023/10/19 07:20:48;;;;;;;1.20;1.20;;;;;;;13.02;76.36;97105.53;4981558;28;20064;-56
2023/10/19 07:23:18;;;;;;;1.00;1.00;;;;;;;13.01;77.08;97076.13;4980421;28;20066;-70
2023/10/19 07:25:55;;;;;;;1.20;1.20;;;;;;;13.27;76.59;97092.63;4979791;28;20135;-67
2023/10/19 07:28:26;;;;;;;1.05;1.05;;;;;;;13.53;75.55;97089.59;4979711;28;20049;-65
2023/10/19 07:30:53;;;;;;;1.20;1.20;;;;;;;13.54;76.01;97101.53;4978101;28;20419;-63
2023/10/19 07:33:20;;;;;;;1.10;1.10;;;;;;;13.25;75.65;97028.22;4975171;28;20057;-68
2023/10/19 07:35:52;;;;;;;1.10;1.10;;;;;;;13.82;75.43;97095.31;4974237;28;20101;-66
2023/10/19 07:38:21;;;;;;;1.20;1.20;;;;;;;13.97;74.57;97080.28;4973312;28;20050;-54
2023/10/19 07:40:52;;;;;;;1.10;1.10;;;;;;;14.30;73.54;97088.41;4977425;28;20199;-66
2023/10/19 07:43:20;;;;;;;1.30;1.30;;;;;;;14.41;73.15;97083.66;4972822;28;20109;-53
2023/10/19 07:45:47;;;;;;;1.20;1.20;;;;;;;14.35;73.53;97062.94;4980286;28;20463;-53
2023/10/19 07:48:14;;;;;;;1.40;1.40;;;;;;;14.76;73.33;97072.59;4980024;28;20050;-53
2023/10/19 07:50:42;;;;;;;1.30;1.30;;;;;;;15.07;73.53;97071.78;4981606;28;20065;-53
2023/10/19 07:53:09;;;;;;;1.40;1.40;;;;;;;15.36;72.07;97062.22;4978367;28;20412;-66
2023/10/19 07:55:38;;;;;;;1.52;1.52;;;;;;;15.45;70.13;97034.72;4974808;28;20727;-53
2023/10/19 07:58:06;;;;;;;1.48;1.48;;;;;;;14.66;73.16;97067.78;4970716;28;20046;-54
2023/10/19 08:00:34;;;;;;;1.45;1.45;;;;;;;13.93;73.64;96935.47;4970765;28;20046;-72
2023/10/19 08:03:05;;;;;;;1.40;1.40;;;;;;;14.76;74.69;97055.84;4974125;28;20068;-67
2023/10/19 08:05:36;;;;;;;1.40;1.40;;;;;;;15.46;72.69;97055.84;4978339;28;20049;-55
2023/10/19 08:08:04;;;;;;;1.50;1.50;;;;;;;15.95;69.40;97054.91;4978215;28;20539;-57
2023/10/19 08:10:31;;;;;;;1.50;1.50;;;;;;;14.77;71.84;97035.13;4977903;28;20081;-64
2023/10/19 08:12:59;;;;;;;1.48;1.48;;;;;;;15.19;71.66;97052.66;4979018;28;20062;-55
2023/10/19 08:15:28;;;;;;;1.40;1.40;;;;;;;15.69;71.10;97061.78;4978058;28;20061;-62
2023/10/19 08:17:55;;;;;;;1.58;1.58;;;;;;;15.56;69.08;96971.25;4976093;28;20053;-56
2023/10/19 08:20:23;;;;;;;1.60;1.60;;;;;;;15.85;67.65;97000.69;4966568;28;20092;-66
2023/10/19 08:22:52;;;;;;;1.50;1.50;;;;;;;16.55;65.96;97052.63;4968470;28;20058;-68
2023/10/19 08:25:20;;;;;;;1.45;1.45;;;;;;;16.42;66.03;97046.69;4972353;28;20113;-66
2023/10/19 08:27:49;;;;;;;1.75;1.75;;;;;;;16.37;65.05;97066.69;4971391;28;20141;-61
2023/10/19 08:30:21;;;;;;;1.70;1.70;;;;;;;16.33;65.24;97065.91;4976015;28;20048;-55
2023/10/19 08:32:53;;;;;;;1.60;1.60;;;;;;;16.35;64.78;97049.53;4977971;28;20116;-53
2023/10/19 08:35:24;;;;;;;1.60;1.60;;;;;;;14.87;65.30;96800.06;4976725;28;20112;-69
2023/10/19 08:37:53;;;;;;;1.70;1.70;;;;;;;16.35;65.01;97018.78;4977946;28;20045;-57
2023/10/19 08:40:23;;;;;;;1.70;1.70;;;;;;;16.64;64.98;97045.38;4974716;28;20120;-65
2023/10/19 08:42:51;;;;;;;1.80;1.80;;;;;;;16.51;63.38;96977.16;4970027;28;21225;-67
2023/10/19 08:45:21;;;;;;;1.73;1.73;;;;;;;16.26;63.17;96917.81;4967279;28;20058;-68
2023/10/19 08:47:57;;;;;;;1.63;1.63;;;;;;;17.28;62.17;97031.66;4975846;28;20651;-58
2023/10/19 08:50:26;;;;;;;1.85;1.85;;;;;;;17.37;60.80;97029.19;4977636;28;20420;-55
2023/10/19 08:52:54;;;;;;;1.80;1.80;;;;;;;17.22;61.87;97035.31;4969852;28;20136;-55
2023/10/19 08:55:22;;;;;;;1.60;1.60;;;;;;;16.90;61.57;96965.63;4977986;28;20136;-56
2023/10/19 08:58:07;;;;;;;1.80;1.80;;;;;;;16.83;61.85;96962.94;4976212;28;20574;-68
2023/10/19 09:00:48;;;;;;;1.60;1.60;;;;;;;17.29;61.71;97012.88;4977058;28;20527;-56
2023/10/19 09:03:16;;;;;;;1.80;1.80;;;;;;;17.34;61.53;97023.63;4971866;28;20187;-71
2023/10/19 09:05:47;;;;;;;1.73;1.73;;;;;;;17.17;61.59;96963.78;4969701;28;20081;-56
2023/10/19 09:08:17;;;;;;;1.90;1.90;;;;;;;17.08;60.42;96920.69;4968390;28;20057;-55
2023/10/19 09:10:45;;;;;;;1.55;1.55;;;;;;;17.47;60.80;97024.72;4970340;28;20069;-56
2023/10/19 09:13:15;;;;;;;2.00;2.00;;;;;;;17.74;60.18;97008.81;4977708;28;20081;-68
2023/10/19 09:15:42;;;;;;;1.90;1.90;;;;;;;17.68;59.39;97005.69;4970765;28;20579;-56
2023/10/19 09:18:14;;;;;;;1.73;1.73;;;;;;;17.70;59.77;97010.88;4977230;28;20100;-67
2023/10/19 09:21:07;;;;;;;1.90;1.90;;;;;;;17.96;58.95;97015.75;4974284;28;20058;-70
2023/10/19 09:23:36;;;;;;;1.90;1.90;;;;;;;17.87;58.72;96967.81;4977813;28;20051;-68
2023/10/19 09:26:05;;;;;;;1.77;1.77;;;;;;;17.47;59.59;96999.50;4973215;28;20058;-54
2023/10/19 09:28:37;;;;;;;1.70;1.70;;;;;;;16.61;62.67;96998.66;4970933;28;20817;-54
2023/10/19 09:31:06;;;;;;;1.70;1.70;;;;;;;17.02;62.96;96989.53;4972110;28;20101;-66
2023/10/19 09:33:33;;;;;;;1.63;1.63;;;;;;;17.83;60.30;96983.91;4979636;28;20606;-55
2023/10/19 09:36:04;;;;;;;2.10;2.10;;;;;;;18.36;58.42;96994.38;4980918;28;20610;-68
2023/10/19 09:38:32;;;;;;;2.00;2.00;;;;;;;17.91;57.77;96940.53;4981360;28;20050;-55
2023/10/19 09:41:00;;;;;;;1.80;1.80;;;;;;;17.23;58.87;96900.53;4980373;28;20057;-55
2023/10/19 09:43:33;;;;;;;1.80;1.80;;;;;;;17.43;59.84;96965.94;4979716;28;20220;-55
2023/10/19 09:46:05;;;;;;;1.83;1.83;;;;;;;17.48;59.51;96957.06;4981992;28;20906;-66
2023/10/19 09:48:39;;;;;;;1.58;1.58;;;;;;;15.71;57.30;96570.66;4975979;28;20061;-56
2023/10/19 09:51:08;;;;;;;1.88;1.88;;;;;;;18.49;55.69;96965.38;4969230;28;20081;-65
2023/10/19 09:53:47;;;;;;;1.63;1.63;;;;;;;18.76;55.36;96960.53;4974199;28;20352;-65
2023/10/19 09:56:23;;;;;;;1.90;1.90;;;;;;;19.41;53.64;96959.81;4980080;28;20077;-56
2023/10/19 09:58:58;;;;;;;2.00;2.00;;;;;;;19.79;52.26;96953.84;4979866;28;20061;-53
2023/10/19 10:01:26;;;;;;;2.20;2.20;;;;;;;20.51;51.27;96947.06;4981443;28;20061;-65
2023/10/19 10:03:53;;;;;;;2.08;2.08;;;;;;;20.43;50.27;96866.84;4980293;28;20100;-54
2023/10/19 10:06:50;;;;;;;2.45;2.38;;;;;;;20.93;49.56;96940.38;4981617;28;20555;-65
2023/10/19 10:09:23;;;;;;;2.10;2.10;;;;;;;20.76;49.16;96911.44;4979450;28;20148;-54
2023/10/19 10:11:53;;;;;;;2.25;2.25;;;;;;;21.11;48.51;96901.31;4987947;28;20120;-66
2023/10/19 10:14:25;;;;;;;2.45;2.35;;;;;;;21.47;47.31;96889.84;4988648;28;20061;-54
2023/10/19 10:17:09;;;;;;;2.28;2.28;;;;;;;21.67;47.13;96910.25;4976552;28;20100;-56
2023/10/19 10:19:36;;;;;;;2.50;2.40;;;;;;;21.56;47.73;96887.97;4980857;28;20057;-56
2023/10/19 10:22:20;;;;;;;2.30;2.30;;;;;;;20.26;48.56;96696.47;4981628;28;20057;-55
2023/10/19 10:24:54;;;;;;;2.13;2.13;;;;;;;21.11;49.10;96890.06;4980951;28;20050;-55
2023/10/19 10:27:21;;;;;;;2.22;2.22;;;;;;;21.10;48.65;96888.47;4979342;28;20073;-65
2023/10/19 10:29:59;;;;;;;2.30;2.28;;;;;;;21.10;48.41;96888.47;4978677;28;20464;-69
2023/10/19 10:32:47;;;;;;;2.20;2.20;;;;;;;19.97;50.50;96895.22;4976531;28;20141;-55
2023/10/19 10:35:36;;;;;;;2.03;2.03;;;;;;;20.08;50.48;96895.75;4973021;28;20049;-66
2023/10/19 10:38:05;;;;;;;2.30;2.30;;;;;;;19.95;50.10;96821.78;4973171;28;20049;-56
2023/10/19 10:40:45;;;;;;;2.00;2.00;;;;;;;20.12;50.36;96851.50;4978221;28;20046;-68
2023/10/19 10:43:12;;;;;;;2.28;2.28;;;;;;;20.50;50.31;96864.63;4978982;28;20050;-55
2023/10/19 10:45:39;;;;;;;2.28;2.28;;;;;;;20.89;48.64;96852.38;4979208;28;20115;-55
2023/10/19 10:48:17;;;;;;;2.38;2.30;;;;;;;21.08;48.85;96857.13;4979951;28;20058;-55
2023/10/19 10:50:45;;;;;;;2.55;2.45;;;;;;;20.34;49.00;96847.78;4980470;28;20057;-54
2023/10/19 10:53:15;;;;;;;2.00;2.00;;;;;;;20.16;49.18;96801.59;4980458;28;20603;-67
2023/10/19 10:55:42;;;;;;;2.33;2.33;;;;;;;20.32;49.64;96843.78;4974226;28;20060;-68
2023/10/19 10:58:09;;;;;;;2.17;2.17;;;;;;;19.72;48.72;96651.22;4973325;28;20062;-66
2023/10/19 11:00:44;;;;;;;2.10;2.10;;;;;;;20.94;48.00;96843.41;4972535;28;20486;-68
2023/10/19 11:03:11;;;;;;;2.22;2.22;;;;;;;21.12;47.88;96835.28;4976343;28;20617;-68
2023/10/19 11:05:38;;;;;;;2.22;2.22;;;;;;;21.10;47.70;96812.41;4980160;28;20064;-55
2023/10/19 11:08:16;;;;;;;2.35;2.33;;;;;;;21.33;47.09;96834.69;4978443;28;20825;-65
2023/10/19 11:10:46;;;;;;;2.78;2.67;;;;;;;20.88;46.97;96777.59;4977443;28;20061;-56
2023/10/19 11:13:22;;;;;;;2.58;2.47;;;;;;;21.32;46.30;96813.41;4976275;28;20132;-57
2023/10/19 11:15:58;;;;;;;2.47;2.38;;;;;;;21.31;43.24;96806.16;4978568;28;20053;-55
2023/10/19 11:18:37;;;;;;;2.70;2.60;;;;;;;21.34;42.61;96825.00;4972532;28;20049;-55
2023/10/19 11:21:09;;;;;;;2.60;2.50;;;;;;;21.16;43.49;96801.38;4972159;28;20053;-55
2023/10/19 11:23:46;;;;;;;2.20;2.20;;;;;;;21.13;43.78;96810.72;4973117;28;20208;-67
2023/10/19 11:26:16;;;;;;;2.88;2.78;;;;;;;21.05;43.57;96801.69;4980635;28;20084;-54
2023/10/19 11:28:47;;;;;;;2.20;2.20;;;;;;;20.78;43.93;96793.56;4978964;28;20045;-68
2023/10/19 11:31:23;;;;;;;2.50;2.40;;;;;;;20.50;44.03;96742.84;4980843;28;20827;-66
2023/10/19 11:33:58;;;;;;;2.55;2.45;;;;;;;20.69;44.35;96772.91;4980292;28;20050;-62
2023/10/19 11:36:25;;;;;;;2.30;2.30;;;;;;;20.66;44.27;96791.44;4979479;28;20050;-54
2023/10/19 11:38:53;;;;;;;2.40;2.30;;;;;;;20.58;43.86;96778.03;4971733;28;20046;-54
2023/10/19 11:41:20;;;;;;;2.20;2.20;;;;;;;20.55;43.61;96790.16;4971266;28;20061;-54
2023/10/19 11:43:48;;;;;;;2.47;2.40;;;;;;;20.66;43.54;96782.22;4971419;28;20041;-66
2023/10/19 11:46:22;;;;;;;2.00;2.00;;;;;;;20.76;43.53;96767.84;4973163;28;20058;-66
2023/10/19 11:48:49;;;;;;;2.17;2.17;;;;;;;20.95;43.08;96763.31;4978700;28;20216;-67
2023/10/19 11:51:16;;;;;;;2.20;2.20;;;;;;;21.04;42.70;96766.28;4980017;28;20167;-55
2023/10/19 11:53:43;;;;;;;2.17;2.17;;;;;;;20.97;43.08;96766.50;4976877;28;20600;-67
2023/10/19 11:56:16;;;;;;;2.20;2.20;;;;;;;20.90;43.13;96758.22;4977582;28;20472;-57
2023/10/19 11:58:46;;;;;;;2.25;2.25;;;;;;;20.53;43.10;96697.69;4976196;28;20446;-60
2023/10/19 12:01:16;;;;;;;2.22;2.22;;;;;;;20.84;42.83;96740.28;4977255;28;20586;-69
2023/10/19 12:03:48;;;;;;;2.35;2.33;;;;;;;20.63;43.03;96729.59;4971619;28;20076;-57